Terminal Aerodrome Forecast
Issued by NWS

Current Version | Previous Version | Text Only | Print | Product List | Glossary On
Versions: 1 2 3 4 5 6 7 8 9 10 11 12 13 14 15 16 17 18 19 20 21 22 23 24 25 26
000
FTUS41 KPBZ 271300 AAB
TAFMGW
TAF AMD
KMGW 271340Z 2714/2812 33006KT P6SM OVC015
      TEMPO 2714/2716 1SM -SN
     FM271900 31010KT 6SM -SN OVC015
     FM280100 32010KT P6SM OVC010
     FM280800 32008KT P6SM BKN025=

USA.gov is the U.S. government's official web portal to all federal, state and local government web resources and services.